createdAt,value
2017-11-15T00:00:53.509Z,3.9
2017-11-15T00:01:55.312Z,3.9
2017-11-15T00:02:57.231Z,4.0
2017-11-15T00:03:58.956Z,3.9
2017-11-15T00:05:00.804Z,3.9
2017-11-15T00:06:02.535Z,3.9
2017-11-15T00:07:04.389Z,3.9
2017-11-15T00:08:06.190Z,3.9
2017-11-15T00:09:07.917Z,3.9
2017-11-15T00:10:09.724Z,3.9
2017-11-15T00:11:11.655Z,3.9
2017-11-15T00:12:13.398Z,3.9
2017-11-15T00:13:16.204Z,4.0
2017-11-15T00:14:17.954Z,3.9
2017-11-15T00:15:19.802Z,3.9
2017-11-15T00:16:21.520Z,3.9
2017-11-15T00:17:23.479Z,4.0
2017-11-15T00:18:25.255Z,3.9
2017-11-15T00:19:27.188Z,3.9
2017-11-15T00:20:28.899Z,4.0
2017-11-15T00:21:30.685Z,3.9
2017-11-15T00:22:32.489Z,4.0
2017-11-15T00:23:34.254Z,4.0
2017-11-15T00:24:36.121Z,3.9
2017-11-15T00:25:39.830Z,4.0
2017-11-15T00:26:41.606Z,3.9
2017-11-15T00:27:43.420Z,3.9
2017-11-15T00:28:45.096Z,3.9
2017-11-15T00:29:47.861Z,3.9
2017-11-15T00:30:49.658Z,3.9
2017-11-15T00:31:51.450Z,3.9
2017-11-15T00:32:53.267Z,4.0
2017-11-15T00:33:54.963Z,4.0
2017-11-15T00:34:56.674Z,4.0
2017-11-15T00:35:58.654Z,3.9
2017-11-15T00:37:00.396Z,3.9
2017-11-15T00:38:02.236Z,3.9
2017-11-15T00:39:03.962Z,3.9
2017-11-15T00:40:05.728Z,3.8
2017-11-15T00:41:07.405Z,3.8
2017-11-15T00:42:09.258Z,3.7
2017-11-15T00:43:10.962Z,3.7
2017-11-15T00:44:12.853Z,3.7
2017-11-15T00:45:14.750Z,3.7
2017-11-15T00:46:16.522Z,3.6
2017-11-15T00:47:18.244Z,3.6
2017-11-15T00:48:20.229Z,3.6
2017-11-15T00:49:22.152Z,3.6
2017-11-15T00:50:24.010Z,3.5
2017-11-15T00:51:25.916Z,3.6
2017-11-15T00:52:27.733Z,3.5
2017-11-15T00:53:29.689Z,3.4
2017-11-15T00:54:31.609Z,3.4
2017-11-15T00:55:33.285Z,3.4
2017-11-15T00:56:35.213Z,3.4
2017-11-15T00:57:37.067Z,3.5
2017-11-15T00:58:38.909Z,3.4
2017-11-15T00:59:40.619Z,3.3
2017-11-15T01:00:42.380Z,3.3
2017-11-15T01:01:44.151Z,3.2
2017-11-15T01:02:45.991Z,3.2
2017-11-15T01:03:47.771Z,3.2
2017-11-15T01:04:49.534Z,3.2
2017-11-15T01:05:51.273Z,3.2
2017-11-15T01:06:53.111Z,3.2
2017-11-15T01:07:54.827Z,3.0
2017-11-15T01:08:56.619Z,3.1
2017-11-15T01:09:58.368Z,3.1
2017-11-15T01:11:00.053Z,3.2
2017-11-15T01:12:01.804Z,3.1
2017-11-15T01:13:03.604Z,3.1
2017-11-15T01:14:05.397Z,3.1
2017-11-15T01:15:07.104Z,3.2
2017-11-15T01:16:08.895Z,3.2
2017-11-15T01:17:10.736Z,3.2
2017-11-15T01:18:12.521Z,3.1
2017-11-15T01:19:14.245Z,3.0
2017-11-15T01:20:15.990Z,3.0
2017-11-15T01:21:17.800Z,2.9
2017-11-15T01:22:19.515Z,2.9
2017-11-15T01:23:21.307Z,3.0
2017-11-15T01:24:23.004Z,2.8
2017-11-15T01:25:24.727Z,2.9
2017-11-15T01:26:26.403Z,2.9
2017-11-15T01:27:28.135Z,2.8
2017-11-15T01:28:29.912Z,3.0
2017-11-15T01:29:31.690Z,2.8
2017-11-15T01:30:33.492Z,2.8
2017-11-15T01:31:35.322Z,2.7
2017-11-15T01:32:37.090Z,2.7
2017-11-15T01:33:38.872Z,2.6
2017-11-15T01:34:40.686Z,2.6
2017-11-15T01:35:42.589Z,2.7
2017-11-15T01:36:44.362Z,2.7
2017-11-15T01:37:46.104Z,2.7
2017-11-15T01:38:47.785Z,2.6
2017-11-15T01:39:49.571Z,2.7
2017-11-15T01:40:51.329Z,2.7
2017-11-15T01:41:53.098Z,2.6
2017-11-15T01:42:54.787Z,2.6
2017-11-15T01:43:56.597Z,2.5
2017-11-15T01:44:58.317Z,2.5
2017-11-15T01:46:00.083Z,2.5
2017-11-15T01:47:01.812Z,2.5
2017-11-15T01:48:04.658Z,2.5
2017-11-15T01:49:06.332Z,2.5
2017-11-15T01:50:08.038Z,2.5
2017-11-15T01:51:09.763Z,2.4
2017-11-15T01:52:11.527Z,2.4
2017-11-15T01:53:13.187Z,2.5
2017-11-15T01:54:15.005Z,2.4
2017-11-15T01:55:16.742Z,2.3
2017-11-15T01:56:18.481Z,2.4
2017-11-15T01:57:20.277Z,2.4
2017-11-15T01:58:22.038Z,2.3
2017-11-15T01:59:23.748Z,2.3
2017-11-15T02:00:25.587Z,2.2
2017-11-15T02:01:27.303Z,2.2
2017-11-15T02:02:29.063Z,2.2
2017-11-15T02:03:30.859Z,2.3
2017-11-15T02:04:32.645Z,2.2
2017-11-15T02:05:34.522Z,2.2
2017-11-15T02:06:36.332Z,2.3
2017-11-15T02:07:38.045Z,2.2
2017-11-15T02:08:39.874Z,2.2
2017-11-15T02:09:41.512Z,2.3
2017-11-15T02:11:00.145Z,2.2
2017-11-15T02:12:01.888Z,2.2
2017-11-15T02:13:03.638Z,2.2
2017-11-15T02:14:05.405Z,2.3
2017-11-15T02:15:07.157Z,2.2
2017-11-15T02:16:08.898Z,2.3
2017-11-15T02:17:10.700Z,2.2
2017-11-15T02:18:12.405Z,2.3
2017-11-15T02:19:14.150Z,2.2
2017-11-15T02:20:15.875Z,2.2
2017-11-15T02:21:17.648Z,2.2
2017-11-15T02:22:19.394Z,2.1
2017-11-15T02:23:21.228Z,2.2
2017-11-15T02:24:22.913Z,2.3
2017-11-15T02:25:24.641Z,2.3
2017-11-15T02:26:26.308Z,2.3
2017-11-15T02:27:27.999Z,2.2
2017-11-15T02:28:29.683Z,2.2
2017-11-15T02:29:31.416Z,2.1
2017-11-15T02:30:33.095Z,2.1
2017-11-15T02:31:34.825Z,2.1
2017-11-15T02:32:36.450Z,2.0
2017-11-15T02:33:38.174Z,2.1
2017-11-15T02:34:39.853Z,2.0
2017-11-15T02:35:41.497Z,2.0
2017-11-15T02:36:43.149Z,2.0
2017-11-15T02:37:44.965Z,2.1
2017-11-15T02:38:46.669Z,2.1
2017-11-15T02:39:48.523Z,2.2
2017-11-15T02:40:50.192Z,2.2
2017-11-15T02:41:51.885Z,2.1
2017-11-15T02:42:53.561Z,2.1
2017-11-15T02:43:55.293Z,2.1
2017-11-15T02:44:56.917Z,2.1
2017-11-15T02:45:58.678Z,2.1
2017-11-15T02:47:00.396Z,2.0
2017-11-15T02:48:02.093Z,1.9
2017-11-15T02:49:03.694Z,1.9
2017-11-15T02:50:05.398Z,1.9
2017-11-15T02:51:06.997Z,1.8
2017-11-15T02:52:08.690Z,1.9
2017-11-15T02:53:10.327Z,1.9
2017-11-15T02:54:13.005Z,1.9
2017-11-15T02:55:14.682Z,1.7
2017-11-15T02:56:17.257Z,1.9
2017-11-15T02:57:18.925Z,1.9
2017-11-15T02:58:21.728Z,1.9
2017-11-15T02:59:23.397Z,1.9
2017-11-15T03:00:26.084Z,1.8
2017-11-15T03:01:27.739Z,2.0
2017-11-15T03:02:30.398Z,1.8
2017-11-15T03:03:32.052Z,1.8
2017-11-15T03:04:33.846Z,1.7
2017-11-15T03:05:35.500Z,1.7
2017-11-15T03:06:38.232Z,1.8
2017-11-15T03:07:39.890Z,1.8
2017-11-15T03:08:41.602Z,1.7
2017-11-15T03:09:43.305Z,1.7
2017-11-15T03:10:45.005Z,1.7
2017-11-15T03:11:46.644Z,1.7
2017-11-15T03:12:53.036Z,1.7
2017-11-15T03:13:54.711Z,1.6
2017-11-15T03:14:56.380Z,1.6
2017-11-15T03:15:58.066Z,1.7
2017-11-15T03:16:59.760Z,1.7
2017-11-15T03:18:01.516Z,1.6
2017-11-15T03:19:03.344Z,1.6
2017-11-15T03:20:05.025Z,1.7
2017-11-15T03:21:06.765Z,1.8
2017-11-15T03:22:08.423Z,1.7
2017-11-15T03:23:11.085Z,1.7
2017-11-15T03:24:12.854Z,1.6
2017-11-15T03:25:14.537Z,1.6
2017-11-15T03:26:16.197Z,1.5
2017-11-15T03:27:19.869Z,1.6
2017-11-15T03:28:21.481Z,1.5
2017-11-15T03:29:23.153Z,1.6
2017-11-15T03:30:24.770Z,1.6
2017-11-15T03:31:26.456Z,1.6
2017-11-15T03:32:28.093Z,1.6
2017-11-15T03:33:30.838Z,1.5
2017-11-15T03:34:32.420Z,1.4
2017-11-15T03:35:34.033Z,1.4
2017-11-15T03:36:35.634Z,1.5
2017-11-15T03:37:37.520Z,1.5
2017-11-15T03:38:39.107Z,1.3
2017-11-15T03:39:40.791Z,1.4
2017-11-15T03:40:42.455Z,1.4
2017-11-15T03:41:44.172Z,1.5
2017-11-15T03:42:45.748Z,1.5
2017-11-15T03:43:47.420Z,1.5
2017-11-15T03:44:48.959Z,1.6
2017-11-15T03:45:50.542Z,1.5
2017-11-15T03:46:52.145Z,1.5
2017-11-15T03:47:53.713Z,1.3
2017-11-15T03:48:55.247Z,1.5
2017-11-15T03:49:56.818Z,1.5
2017-11-15T03:50:58.442Z,1.5
2017-11-15T03:52:00.111Z,1.5
2017-11-15T03:53:01.649Z,1.5
2017-11-15T03:54:03.289Z,1.4
2017-11-15T03:55:04.816Z,1.3
2017-11-15T03:56:06.361Z,1.4
2017-11-15T03:57:07.897Z,1.3
2017-11-15T03:58:09.497Z,1.4
2017-11-15T03:59:11.100Z,1.4
2017-11-15T04:00:12.633Z,1.3
2017-11-15T04:01:14.266Z,1.4
2017-11-15T04:02:15.863Z,1.3
2017-11-15T04:03:17.452Z,1.3
2017-11-15T04:04:18.966Z,1.3
2017-11-15T04:05:20.574Z,1.4
2017-11-15T04:06:22.108Z,1.3
2017-11-15T04:07:23.626Z,1.3
2017-11-15T04:08:25.152Z,1.3
2017-11-15T04:09:26.721Z,1.2
2017-11-15T04:10:28.251Z,1.3
2017-11-15T04:11:29.856Z,1.2
2017-11-15T04:12:31.423Z,1.3
2017-11-15T04:13:33.044Z,1.3
2017-11-15T04:14:34.554Z,1.2
2017-11-15T04:15:36.214Z,1.2
2017-11-15T04:16:37.739Z,1.3
2017-11-15T04:17:39.399Z,1.3
2017-11-15T04:18:40.935Z,1.4
2017-11-15T04:19:42.579Z,1.3
2017-11-15T04:20:44.148Z,1.3
2017-11-15T04:21:45.756Z,1.4
2017-11-15T04:22:47.296Z,1.3
2017-11-15T04:23:48.923Z,1.3
2017-11-15T04:24:50.450Z,1.2
2017-11-15T04:25:52.044Z,1.3
2017-11-15T04:26:53.630Z,1.2
2017-11-15T04:27:55.212Z,1.2
2017-11-15T04:28:56.830Z,1.3
2017-11-15T04:29:58.420Z,1.3
2017-11-15T04:30:59.999Z,1.3
2017-11-15T04:32:02.666Z,1.3
2017-11-15T04:33:04.263Z,1.3
2017-11-15T04:34:05.948Z,1.4
2017-11-15T04:35:07.475Z,1.3
2017-11-15T04:36:10.113Z,1.3
2017-11-15T04:37:11.634Z,1.3
2017-11-15T04:38:25.890Z,1.2
2017-11-15T04:39:27.419Z,1.2
2017-11-15T04:40:28.998Z,1.2
2017-11-15T04:41:30.536Z,1.3
2017-11-15T04:42:32.188Z,1.3
2017-11-15T04:43:33.710Z,1.2
2017-11-15T04:44:35.396Z,1.2
2017-11-15T04:45:36.918Z,1.1
2017-11-15T04:46:38.618Z,1.2
2017-11-15T04:47:40.215Z,1.2
2017-11-15T04:48:41.788Z,1.2
2017-11-15T04:49:43.357Z,1.3
2017-11-15T04:50:44.964Z,1.2
2017-11-15T04:51:46.522Z,1.2
2017-11-15T04:52:48.165Z,1.2
2017-11-15T04:53:49.709Z,1.2
2017-11-15T04:54:51.316Z,1.2
2017-11-15T04:55:52.953Z,1.2
2017-11-15T04:56:54.679Z,1.2
2017-11-15T04:57:56.346Z,1.3
2017-11-15T04:58:58.049Z,1.3
2017-11-15T04:59:59.705Z,1.3
2017-11-15T05:01:01.413Z,1.3
2017-11-15T05:02:03.025Z,1.2
2017-11-15T05:03:04.720Z,1.3
2017-11-15T05:04:06.303Z,1.3
2017-11-15T05:05:08.037Z,1.3
2017-11-15T05:06:09.694Z,1.3
2017-11-15T05:07:11.404Z,1.4
2017-11-15T05:08:12.986Z,1.3
2017-11-15T05:09:14.659Z,1.3
2017-11-15T05:10:16.235Z,1.3
2017-11-15T05:11:17.865Z,1.4
2017-11-15T05:12:19.451Z,1.3
2017-11-15T05:13:21.100Z,1.3
2017-11-15T05:14:22.648Z,1.4
2017-11-15T05:15:24.287Z,1.5
2017-11-15T05:16:25.834Z,1.4
2017-11-15T05:17:27.576Z,1.3
2017-11-15T05:18:29.121Z,1.5
2017-11-15T05:19:30.688Z,1.5
2017-11-15T05:20:32.239Z,1.5
2017-11-15T05:21:33.810Z,1.6
2017-11-15T05:22:35.285Z,1.5
2017-11-15T05:23:36.878Z,1.6
2017-11-15T05:24:38.475Z,1.6
2017-11-15T05:25:39.985Z,1.5
2017-11-15T05:26:41.568Z,1.6
2017-11-15T05:27:43.166Z,1.6
2017-11-15T05:28:44.807Z,1.5
2017-11-15T05:29:46.444Z,1.6
2017-11-15T05:30:47.982Z,1.5
2017-11-15T05:31:49.549Z,1.6
2017-11-15T05:32:51.160Z,1.6
2017-11-15T05:33:52.880Z,1.5
2017-11-15T05:34:54.492Z,1.5
2017-11-15T05:35:56.111Z,1.6
2017-11-15T05:36:57.700Z,1.7
2017-11-15T05:37:59.359Z,1.7
2017-11-15T05:39:00.861Z,1.6
2017-11-15T05:40:02.480Z,1.6
2017-11-15T05:41:04.021Z,1.7
2017-11-15T05:42:05.621Z,1.6
2017-11-15T05:43:07.190Z,1.6
2017-11-15T05:44:08.796Z,1.6
2017-11-15T05:45:10.618Z,1.7
2017-11-15T05:46:12.213Z,1.6
2017-11-15T05:47:13.755Z,1.6
2017-11-15T05:48:15.400Z,1.6
2017-11-15T05:49:16.927Z,1.6
2017-11-15T05:50:18.481Z,1.6
2017-11-15T05:51:19.957Z,1.6
2017-11-15T05:52:21.534Z,1.7
2017-11-15T05:53:23.112Z,1.6
2017-11-15T05:54:26.708Z,1.6
2017-11-15T05:55:28.221Z,1.6
2017-11-15T05:56:29.791Z,1.6
2017-11-15T05:57:31.387Z,1.6
2017-11-15T05:58:32.947Z,1.6
2017-11-15T05:59:34.528Z,1.6
2017-11-15T06:00:36.193Z,1.7
2017-11-15T06:01:37.704Z,1.5
2017-11-15T06:02:44.867Z,1.7
2017-11-15T06:03:46.426Z,1.5
2017-11-15T06:04:48.946Z,1.5
2017-11-15T06:05:50.422Z,1.5
2017-11-15T06:06:52.184Z,1.5
2017-11-15T06:07:53.643Z,1.5
2017-11-15T06:08:56.236Z,1.6
2017-11-15T06:09:57.827Z,1.5
2017-11-15T06:10:59.400Z,1.5
2017-11-15T06:12:00.952Z,1.5
2017-11-15T06:13:02.435Z,1.5
2017-11-15T06:14:04.042Z,1.5
2017-11-15T06:15:07.691Z,1.4
2017-11-15T06:16:09.232Z,1.5
2017-11-15T06:17:10.785Z,1.3
2017-11-15T06:18:12.274Z,1.3
2017-11-15T06:19:14.089Z,1.3
2017-11-15T06:20:15.705Z,1.3
2017-11-15T06:21:17.391Z,1.2
2017-11-15T06:22:18.859Z,1.3
2017-11-15T06:23:21.509Z,1.3
2017-11-15T06:24:23.045Z,1.2
2017-11-15T06:25:24.675Z,1.4
2017-11-15T06:26:26.277Z,1.3
2017-11-15T06:27:27.850Z,1.2
2017-11-15T06:28:29.431Z,1.3
2017-11-15T06:29:31.004Z,1.3
2017-11-15T06:30:32.605Z,1.4
2017-11-15T06:31:34.125Z,1.6
2017-11-15T06:32:35.690Z,1.4
2017-11-15T06:33:37.396Z,1.5
2017-11-15T06:34:38.835Z,1.5
2017-11-15T06:35:40.456Z,1.5
2017-11-15T06:36:41.934Z,1.6
2017-11-15T06:37:43.546Z,1.5
2017-11-15T06:38:45.121Z,1.6
2017-11-15T06:39:46.642Z,1.5
2017-11-15T06:40:48.222Z,1.6
2017-11-15T06:41:49.811Z,1.5
2017-11-15T06:42:51.340Z,1.5
2017-11-15T06:43:52.939Z,1.7
2017-11-15T06:44:54.495Z,1.7
2017-11-15T06:45:56.119Z,1.7
2017-11-15T06:46:57.676Z,1.7
2017-11-15T06:47:59.317Z,1.8
2017-11-15T06:49:00.931Z,1.6
2017-11-15T06:50:02.468Z,1.6
2017-11-15T06:51:03.986Z,1.7
2017-11-15T06:52:05.560Z,1.7
2017-11-15T06:53:07.052Z,1.7
2017-11-15T06:54:08.706Z,1.8
2017-11-15T06:55:10.234Z,1.8
2017-11-15T06:56:11.899Z,1.8
2017-11-15T06:57:13.476Z,1.8
2017-11-15T06:58:15.030Z,1.7
2017-11-15T06:59:16.542Z,1.7
2017-11-15T07:00:18.112Z,1.8
2017-11-15T07:01:19.629Z,1.8
2017-11-15T07:02:21.242Z,1.8
2017-11-15T07:03:22.777Z,1.7
2017-11-15T07:04:24.355Z,1.8
2017-11-15T07:05:25.911Z,1.7
2017-11-15T07:06:27.481Z,1.7
2017-11-15T07:07:29.258Z,1.7
2017-11-15T07:08:30.914Z,1.7
2017-11-15T07:09:32.457Z,1.7
2017-11-15T07:10:34.084Z,1.7
2017-11-15T07:11:35.732Z,1.8
2017-11-15T07:12:38.409Z,1.7
2017-11-15T07:13:39.999Z,1.7
2017-11-15T07:14:42.005Z,1.7
2017-11-15T07:15:43.546Z,1.8
2017-11-15T07:16:45.206Z,1.8
2017-11-15T07:17:46.795Z,1.8
2017-11-15T07:18:48.433Z,1.8
2017-11-15T07:19:50.012Z,1.8
2017-11-15T07:20:51.652Z,1.8
2017-11-15T07:21:53.328Z,1.8
2017-11-15T07:22:55.075Z,1.9
2017-11-15T07:23:56.652Z,1.8
2017-11-15T07:24:58.260Z,1.9
2017-11-15T07:25:59.893Z,1.9
2017-11-15T07:27:02.669Z,1.9
2017-11-15T07:28:04.304Z,1.7
2017-11-15T07:29:06.061Z,1.8
2017-11-15T07:30:07.669Z,1.8
2017-11-15T07:31:09.337Z,1.8
2017-11-15T07:32:11.135Z,1.9
2017-11-15T07:33:12.833Z,1.9
2017-11-15T07:34:14.535Z,1.9
2017-11-15T07:35:16.139Z,1.9
2017-11-15T07:36:17.693Z,1.8
2017-11-15T07:37:19.421Z,1.8
2017-11-15T07:38:21.112Z,1.7
2017-11-15T07:39:22.762Z,1.8
2017-11-15T07:40:24.457Z,1.8
2017-11-15T07:41:26.219Z,1.9
2017-11-15T07:42:27.961Z,1.9
2017-11-15T07:43:29.830Z,1.9
2017-11-15T07:44:31.924Z,1.9
2017-11-15T07:45:33.913Z,2.1
2017-11-15T07:46:35.665Z,2.0
2017-11-15T07:47:37.511Z,2.0
2017-11-15T07:48:39.278Z,2.1
2017-11-15T07:49:41.321Z,2.1
2017-11-15T07:50:43.127Z,2.1
2017-11-15T07:51:44.946Z,2.1
2017-11-15T07:52:46.746Z,2.1
2017-11-15T07:53:53.138Z,2.1
2017-11-15T07:54:54.908Z,2.1
2017-11-15T07:55:57.741Z,2.1
2017-11-15T07:56:59.439Z,2.2
2017-11-15T07:58:01.328Z,2.1
2017-11-15T07:59:03.127Z,2.1
2017-11-15T08:00:04.955Z,2.1
2017-11-15T08:01:06.670Z,2.2
2017-11-15T08:02:08.503Z,2.1
2017-11-15T08:03:10.330Z,2.1
2017-11-15T08:04:12.148Z,2.2
2017-11-15T08:05:13.913Z,2.2
2017-11-15T08:06:15.756Z,2.2
2017-11-15T08:07:17.540Z,2.2
2017-11-15T08:08:19.443Z,2.2
2017-11-15T08:09:21.244Z,2.2
2017-11-15T08:10:23.172Z,2.2
2017-11-15T08:11:25.268Z,2.2
2017-11-15T08:12:27.273Z,2.2
2017-11-15T08:13:29.090Z,2.3
2017-11-15T08:14:30.964Z,2.2
2017-11-15T08:15:32.840Z,2.3
2017-11-15T08:16:34.840Z,2.3
2017-11-15T08:17:36.644Z,2.3
2017-11-15T08:18:38.404Z,2.3
2017-11-15T08:19:40.342Z,2.2
2017-11-15T08:20:43.201Z,2.2
2017-11-15T08:21:45.119Z,2.3
2017-11-15T08:22:47.100Z,2.3
2017-11-15T08:23:48.968Z,2.3
2017-11-15T08:24:51.944Z,2.2
2017-11-15T08:25:53.831Z,2.3
2017-11-15T08:26:57.645Z,2.4
2017-11-15T08:27:59.452Z,2.3
2017-11-15T08:29:03.465Z,2.4
2017-11-15T08:30:05.508Z,2.3
2017-11-15T08:31:13.269Z,2.3
2017-11-15T08:32:15.068Z,2.4
2017-11-15T08:33:18.014Z,2.4
2017-11-15T08:34:19.826Z,2.5
2017-11-15T08:35:21.699Z,2.5
2017-11-15T08:36:23.479Z,2.4
2017-11-15T08:37:25.439Z,2.5
2017-11-15T08:38:27.249Z,2.5
2017-11-15T08:39:29.086Z,2.4
2017-11-15T08:40:30.887Z,2.5
2017-11-15T08:41:33.850Z,2.5
2017-11-15T08:42:35.702Z,2.5
2017-11-15T08:43:37.569Z,2.4
2017-11-15T08:44:39.382Z,2.4
2017-11-15T08:45:41.286Z,2.3
2017-11-15T08:46:43.130Z,2.4
2017-11-15T08:47:45.026Z,2.5
2017-11-15T08:48:46.865Z,2.4
2017-11-15T08:49:48.803Z,2.4
2017-11-15T08:50:50.616Z,2.4
2017-11-15T08:51:53.546Z,2.5
2017-11-15T08:52:55.490Z,2.6
2017-11-15T08:53:59.385Z,2.5
2017-11-15T08:55:01.589Z,2.5
2017-11-15T08:56:03.424Z,2.5
2017-11-15T08:57:05.300Z,2.6
2017-11-15T08:58:07.121Z,2.6
2017-11-15T08:59:08.924Z,2.6
2017-11-15T09:00:11.773Z,2.6
2017-11-15T09:01:13.986Z,2.5
2017-11-15T09:02:16.758Z,2.6
2017-11-15T09:03:18.548Z,2.6
2017-11-15T09:04:20.488Z,2.7
2017-11-15T09:05:22.442Z,2.7
2017-11-15T09:06:25.380Z,2.9
2017-11-15T09:07:29.987Z,2.9
2017-11-15T09:08:32.861Z,2.8
2017-11-15T09:09:34.577Z,2.8
2017-11-15T09:10:37.491Z,3.0
2017-11-15T09:11:39.334Z,2.9
2017-11-15T09:12:41.309Z,3.0
2017-11-15T09:13:43.022Z,2.8
2017-11-15T09:14:45.820Z,2.8
2017-11-15T09:15:47.691Z,2.8
2017-11-15T09:16:50.604Z,2.9
2017-11-15T09:17:52.462Z,2.8
2017-11-15T09:18:54.247Z,2.8
2017-11-15T09:19:56.121Z,2.8
2017-11-15T09:20:57.953Z,2.8
2017-11-15T09:21:59.852Z,3.0
2017-11-15T09:23:01.739Z,3.1
2017-11-15T09:24:03.683Z,3.1
2017-11-15T09:25:05.593Z,3.0
2017-11-15T09:26:07.492Z,3.1
2017-11-15T09:27:09.326Z,3.2
2017-11-15T09:28:11.104Z,3.1
2017-11-15T09:29:13.032Z,3.2
2017-11-15T09:30:14.874Z,3.0
2017-11-15T09:31:16.708Z,2.9
2017-11-15T09:32:18.454Z,2.9
2017-11-15T09:33:20.387Z,3.1
2017-11-15T09:34:22.138Z,3.1
2017-11-15T09:35:25.098Z,3.2
2017-11-15T09:36:26.910Z,3.0
2017-11-15T09:37:28.851Z,3.1
2017-11-15T09:38:30.861Z,3.1
2017-11-15T09:39:32.662Z,3.2
2017-11-15T09:40:34.529Z,2.9
2017-11-15T09:41:36.535Z,3.0
2017-11-15T09:42:38.422Z,3.0
2017-11-15T09:43:40.336Z,3.0
2017-11-15T09:44:42.288Z,3.0
2017-11-15T09:45:44.114Z,3.1
2017-11-15T09:46:46.079Z,3.1
2017-11-15T09:47:47.944Z,3.1
2017-11-15T09:48:49.856Z,3.1
2017-11-15T09:49:51.655Z,3.1
2017-11-15T09:50:53.376Z,3.0
2017-11-15T09:52:02.125Z,3.1
2017-11-15T09:53:03.868Z,3.1
2017-11-15T09:54:05.659Z,3.2
2017-11-15T09:55:07.331Z,3.1
2017-11-15T09:56:10.324Z,3.1
2017-11-15T09:57:12.249Z,3.1
2017-11-15T09:58:14.261Z,3.1
2017-11-15T09:59:16.035Z,3.0
2017-11-15T10:00:17.896Z,3.1
2017-11-15T10:01:19.859Z,3.1
2017-11-15T10:02:21.756Z,3.2
2017-11-15T10:03:24.011Z,3.3
2017-11-15T10:04:25.897Z,3.2
2017-11-15T10:05:27.592Z,3.2
2017-11-15T10:06:29.730Z,3.2
2017-11-15T10:07:31.481Z,3.3
2017-11-15T10:08:33.368Z,3.3
2017-11-15T10:09:35.319Z,3.6
2017-11-15T10:10:38.145Z,3.6
2017-11-15T10:11:40.125Z,3.7
2017-11-15T10:12:42.854Z,3.6
2017-11-15T10:13:45.700Z,3.7
2017-11-15T10:14:48.338Z,3.7
2017-11-15T10:15:50.137Z,3.8
2017-11-15T10:16:52.083Z,3.7
2017-11-15T10:17:53.964Z,3.9
2017-11-15T10:18:55.851Z,4.0
2017-11-15T10:19:57.654Z,3.9
2017-11-15T10:20:59.699Z,3.9
2017-11-15T10:22:03.105Z,4.0
2017-11-15T10:23:05.243Z,3.9
2017-11-15T10:24:07.545Z,3.7
2017-11-15T10:25:09.500Z,3.8
2017-11-15T10:26:11.518Z,3.7
2017-11-15T10:27:13.433Z,3.9
2017-11-15T10:28:15.272Z,3.8
2017-11-15T10:29:17.010Z,3.8
2017-11-15T10:30:18.904Z,4.0
2017-11-15T10:31:20.891Z,4.0
2017-11-15T10:32:22.721Z,3.9
2017-11-15T10:33:27.644Z,3.9
2017-11-15T10:34:29.470Z,3.7
2017-11-15T10:35:31.349Z,3.9
2017-11-15T10:36:33.291Z,4.0
2017-11-15T10:37:35.195Z,3.8
2017-11-15T10:38:36.973Z,3.8
2017-11-15T10:39:40.045Z,4.0
2017-11-15T10:40:41.878Z,4.0
2017-11-15T10:41:43.760Z,3.9
2017-11-15T10:42:45.615Z,3.8
2017-11-15T10:43:47.570Z,3.8
2017-11-15T10:44:49.510Z,4.0
2017-11-15T10:45:52.528Z,4.0
2017-11-15T10:46:54.406Z,3.9
2017-11-15T10:47:56.323Z,4.0
2017-11-15T10:48:58.180Z,3.6
2017-11-15T10:50:00.391Z,3.7
2017-11-15T10:51:02.167Z,3.7
2017-11-15T10:52:03.961Z,3.9
2017-11-15T10:53:05.852Z,4.0
2017-11-15T10:54:07.658Z,4.2
2017-11-15T10:55:09.507Z,4.0
2017-11-15T10:56:11.475Z,4.1
2017-11-15T10:57:13.353Z,4.3
2017-11-15T10:58:15.338Z,4.2
2017-11-15T10:59:17.156Z,4.1
2017-11-15T11:00:19.384Z,4.2
2017-11-15T11:01:21.279Z,4.0
2017-11-15T11:02:23.302Z,4.0
2017-11-15T11:03:25.455Z,4.2
2017-11-15T11:04:27.497Z,4.1
2017-11-15T11:05:29.496Z,4.3
2017-11-15T11:06:31.355Z,4.3
2017-11-15T11:07:33.063Z,4.3
2017-11-15T11:08:34.998Z,4.5
2017-11-15T11:09:36.861Z,4.6
2017-11-15T11:10:38.887Z,4.6
2017-11-15T11:11:40.750Z,4.7
2017-11-15T11:12:43.674Z,4.8
2017-11-15T11:13:45.465Z,4.7
2017-11-15T11:14:47.325Z,4.7
2017-11-15T11:15:49.147Z,4.4
2017-11-15T11:16:53.045Z,4.5
2017-11-15T11:17:54.867Z,4.5
2017-11-15T11:18:56.749Z,4.7
2017-11-15T11:19:58.562Z,4.7
2017-11-15T11:21:00.453Z,4.8
2017-11-15T11:22:02.221Z,4.9
2017-11-15T11:23:04.208Z,5.0
2017-11-15T11:24:06.049Z,5.1
2017-11-15T11:25:07.947Z,5.1
2017-11-15T11:26:09.850Z,5.1
2017-11-15T11:27:12.681Z,5.1
2017-11-15T11:28:14.421Z,5.1
2017-11-15T11:29:16.297Z,5.2
2017-11-15T11:30:18.295Z,5.2
2017-11-15T11:31:22.860Z,5.2
2017-11-15T11:32:24.781Z,5.1
2017-11-15T11:33:26.749Z,5.4
2017-11-15T11:34:28.522Z,5.5
2017-11-15T11:35:30.554Z,5.6
2017-11-15T11:36:32.358Z,5.9
2017-11-15T11:37:34.337Z,5.9
2017-11-15T11:38:36.239Z,5.7
2017-11-15T11:39:42.828Z,5.7
2017-11-15T11:40:44.713Z,5.7
2017-11-15T11:41:46.709Z,5.6
2017-11-15T11:42:48.591Z,5.4
2017-11-15T11:43:51.456Z,5.3
2017-11-15T11:44:53.352Z,5.4
2017-11-15T11:45:55.273Z,5.6
2017-11-15T11:46:57.428Z,5.3
2017-11-15T11:47:59.450Z,5.1
2017-11-15T11:49:01.416Z,5.2
2017-11-15T11:50:03.286Z,5.1
2017-11-15T11:51:05.268Z,5.1
2017-11-15T11:52:07.306Z,5.3
2017-11-15T11:53:09.061Z,5.6
2017-11-15T11:54:10.869Z,5.5
2017-11-15T11:55:12.741Z,5.6
2017-11-15T11:56:15.706Z,5.6
2017-11-15T11:57:17.484Z,5.2
2017-11-15T11:58:19.294Z,5.1
2017-11-15T11:59:21.133Z,5.2
2017-11-15T12:00:22.986Z,5.3
2017-11-15T12:01:26.029Z,5.5
2017-11-15T12:02:27.813Z,5.6
2017-11-15T12:03:29.627Z,5.6
2017-11-15T12:04:31.462Z,5.5
2017-11-15T12:05:33.361Z,5.2
2017-11-15T12:06:35.210Z,5.4
2017-11-15T12:07:37.067Z,5.4
2017-11-15T12:08:38.801Z,5.4
2017-11-15T12:09:42.592Z,5.5
2017-11-15T12:10:44.548Z,5.5
2017-11-15T12:11:46.331Z,5.7
2017-11-15T12:12:48.127Z,5.9
2017-11-15T12:13:50.862Z,5.8
2017-11-15T12:14:52.770Z,5.5
2017-11-15T12:15:54.606Z,5.8
2017-11-15T12:16:56.610Z,5.8
2017-11-15T12:17:58.318Z,5.4
2017-11-15T12:19:00.051Z,5.6
2017-11-15T12:20:01.916Z,5.7
2017-11-15T12:21:03.691Z,5.8
2017-11-15T12:22:07.030Z,5.9
2017-11-15T12:23:08.712Z,5.6
2017-11-15T12:24:10.687Z,5.5
2017-11-15T12:25:12.390Z,5.8
2017-11-15T12:26:14.344Z,5.9
2017-11-15T12:27:16.006Z,6.0
2017-11-15T12:28:17.835Z,5.9
2017-11-15T12:29:19.675Z,5.8
2017-11-15T12:30:21.506Z,5.6
2017-11-15T12:31:23.252Z,5.8
2017-11-15T12:32:25.019Z,6.0
2017-11-15T12:33:26.785Z,6.0
2017-11-15T12:34:28.677Z,5.8
2017-11-15T12:35:30.425Z,5.9
2017-11-15T12:36:32.370Z,6.1
2017-11-15T12:37:34.322Z,6.3
2017-11-15T12:38:36.276Z,6.3
2017-11-15T12:39:37.960Z,6.4
2017-11-15T12:40:40.853Z,6.4
2017-11-15T12:41:42.767Z,6.1
2017-11-15T12:42:44.661Z,6.4
2017-11-15T12:43:46.320Z,6.5
2017-11-15T12:44:48.057Z,6.4
2017-11-15T12:45:50.001Z,6.4
2017-11-15T12:46:51.764Z,6.4
2017-11-15T12:47:53.532Z,6.5
2017-11-15T12:48:56.294Z,6.7
2017-11-15T12:49:58.011Z,6.6
2017-11-15T12:50:59.925Z,6.4
2017-11-15T12:52:01.707Z,6.7
2017-11-15T12:53:03.465Z,7.0
2017-11-15T12:54:05.926Z,6.8
2017-11-15T12:55:07.979Z,6.9
2017-11-15T12:56:09.917Z,6.4
2017-11-15T12:57:11.926Z,6.5
2017-11-15T12:58:13.792Z,6.4
2017-11-15T12:59:15.838Z,6.6
2017-11-15T13:00:17.973Z,6.8
2017-11-15T13:01:19.780Z,7.0
2017-11-15T13:02:21.692Z,7.0
2017-11-15T13:03:25.704Z,7.1
2017-11-15T13:04:27.645Z,6.7
2017-11-15T13:05:29.556Z,6.9
2017-11-15T13:06:31.565Z,7.0
2017-11-15T13:07:33.401Z,7.0
2017-11-15T13:08:35.320Z,7.2
2017-11-15T13:09:37.345Z,7.0
2017-11-15T13:10:39.361Z,7.0
2017-11-15T13:11:41.260Z,7.0
2017-11-15T13:12:43.260Z,6.7
2017-11-15T13:13:45.176Z,6.7
2017-11-15T13:14:46.855Z,6.6
2017-11-15T13:15:49.625Z,6.4
2017-11-15T13:16:51.343Z,6.5
2017-11-15T13:17:53.085Z,6.5
2017-11-15T13:18:54.819Z,6.6
2017-11-15T13:19:56.546Z,6.8
2017-11-15T13:20:58.316Z,6.8
2017-11-15T13:22:01.411Z,6.7
2017-11-15T13:23:03.024Z,6.5
2017-11-15T13:24:04.991Z,6.4
2017-11-15T13:25:06.846Z,6.4
2017-11-15T13:26:08.647Z,6.3
2017-11-15T13:27:10.463Z,6.5
2017-11-15T13:28:12.234Z,6.4
2017-11-15T13:29:14.207Z,6.5
2017-11-15T13:30:16.073Z,6.5
2017-11-15T13:31:17.789Z,6.3
2017-11-15T13:32:19.700Z,6.3
2017-11-15T13:33:21.363Z,6.3
2017-11-15T13:34:23.132Z,6.3
2017-11-15T13:35:24.730Z,6.2
2017-11-15T13:36:27.044Z,6.3
2017-11-15T13:37:29.135Z,6.3
2017-11-15T13:38:31.398Z,6.3
2017-11-15T13:39:33.426Z,6.3
2017-11-15T13:40:35.142Z,6.2
2017-11-15T13:41:36.874Z,6.1
2017-11-15T13:42:38.867Z,6.3
2017-11-15T13:43:40.773Z,6.3
2017-11-15T13:44:42.502Z,6.3
2017-11-15T13:45:44.441Z,6.2
2017-11-15T13:46:46.287Z,6.1
2017-11-15T13:47:47.962Z,6.1
2017-11-15T13:48:49.733Z,6.3
2017-11-15T13:49:51.469Z,6.3
2017-11-15T13:50:53.181Z,6.2
2017-11-15T13:51:54.938Z,6.2
2017-11-15T13:52:56.747Z,6.1
2017-11-15T13:53:58.389Z,6.1
2017-11-15T13:55:00.211Z,6.2
2017-11-15T13:56:01.907Z,6.2
2017-11-15T13:57:03.652Z,6.3
2017-11-15T13:58:05.453Z,6.3
2017-11-15T13:59:07.223Z,6.2
2017-11-15T14:00:08.898Z,6.2
2017-11-15T14:01:10.710Z,6.0
2017-11-15T14:02:12.515Z,6.1
2017-11-15T14:03:14.328Z,6.0
2017-11-15T14:04:16.001Z,6.0
2017-11-15T14:05:22.762Z,6.0
2017-11-15T14:06:24.646Z,6.1
2017-11-15T14:07:26.581Z,5.9
2017-11-15T14:08:28.459Z,6.0
2017-11-15T14:09:30.470Z,6.0
2017-11-15T14:10:32.262Z,5.9
2017-11-15T14:11:34.035Z,6.1
2017-11-15T14:12:35.795Z,6.0
2017-11-15T14:13:37.560Z,5.9